Time;durP1;ratioP1;P1;durP2;ratioP2;P2;SDS_P1;SDS_P2;PMS_P1;PMS_P2;Temp;Humidity;BMP_temperature;BMP_pressure;BME280_temperature;BME280_humidity;BME280_pressure;Samples;Min_cycle;Max_cycle;Signal;HPM_P1;HPM_P2
2023/05/29 00:03:01;;;;;;;16.70;6.68;;;12.80;94.60;;;;;;6279032;28;20044;-78
2023/05/29 00:06:03;;;;;;;8.18;6.38;;;12.80;94.70;;;;;;6280468;28;20049;-78
2023/05/29 00:09:05;;;;;;;8.75;5.85;;;12.70;94.80;;;;;;6278013;28;20519;-78
2023/05/29 00:12:07;;;;;;;9.90;6.38;;;12.70;95.00;;;;;;6278033;28;20045;-78
2023/05/29 00:15:12;;;;;;;12.95;7.93;;;12.60;95.10;;;;;;6326962;22;20047;-80
2023/05/29 00:18:14;;;;;;;20.02;6.80;;;12.60;95.40;;;;;;6336265;28;20044;-79
2023/05/29 00:21:16;;;;;;;10.73;7.63;;;12.60;95.50;;;;;;6337453;28;20044;-79
2023/05/29 00:24:20;;;;;;;11.55;7.47;;;12.60;95.60;;;;;;6326375;28;20693;-80
2023/05/29 00:27:21;;;;;;;12.48;7.30;;;12.60;95.80;;;;;;6315409;28;20052;-80
2023/05/29 00:30:24;;;;;;;12.45;6.97;;;12.70;95.90;;;;;;6322988;28;20096;-80
2023/05/29 00:33:26;;;;;;;7.65;5.53;;;12.70;96.00;;;;;;6347325;28;20032;-79
2023/05/29 00:36:29;;;;;;;7.88;6.22;;;12.80;96.00;;;;;;6335701;28;20048;-81
2023/05/29 00:39:31;;;;;;;7.68;6.32;;;12.90;96.10;;;;;;6331529;28;20047;-81
2023/05/29 00:42:33;;;;;;;11.63;6.18;;;13.00;96.10;;;;;;6316092;28;20063;-82
2023/05/29 00:45:36;;;;;;;10.68;5.82;;;13.00;96.10;;;;;;6309155;28;20059;-83
2023/05/29 00:48:38;;;;;;;10.05;5.90;;;13.20;96.10;;;;;;6305409;28;20044;-82
2023/05/29 00:51:40;;;;;;;9.60;5.40;;;13.30;96.00;;;;;;6308638;28;20057;-82
2023/05/29 00:54:45;;;;;;;15.13;6.50;;;13.40;95.60;;;;;;6306636;28;20072;-81
2023/05/29 00:57:47;;;;;;;11.40;5.70;;;13.50;95.40;;;;;;6305266;28;20052;-81
2023/05/29 01:00:52;;;;;;;12.10;6.43;;;13.50;95.30;;;;;;6303054;28;20056;-82
2023/05/29 01:03:57;;;;;;;8.48;5.45;;;13.60;95.10;;;;;;6306369;28;20040;-81
2023/05/29 01:07:00;;;;;;;8.55;6.07;;;13.70;94.90;;;;;;6316514;28;20048;-81
2023/05/29 01:10:02;;;;;;;9.90;5.65;;;13.70;94.70;;;;;;6306818;28;20567;-82
2023/05/29 01:13:09;;;;;;;8.25;5.88;;;13.70;94.40;;;;;;6306125;28;20044;-82
2023/05/29 01:16:21;;;;;;;7.40;5.17;;;13.70;94.30;;;;;;6310257;28;20457;-82
2023/05/29 01:19:34;;;;;;;11.93;7.00;;;13.80;94.20;;;;;;6307846;28;20051;-81
2023/05/29 01:22:58;;;;;;;10.20;5.07;;;13.90;94.10;;;;;;6314971;28;20056;-81
2023/05/29 01:26:12;;;;;;;7.65;4.38;;;13.90;93.80;;;;;;6312856;28;20044;-83
2023/05/29 01:29:19;;;;;;;6.10;5.00;;;14.00;93.70;;;;;;6312802;28;20056;-81
2023/05/29 01:32:22;;;;;;;10.15;7.18;;;14.00;93.50;;;;;;6312570;28;20108;-82
2023/05/29 01:35:24;;;;;;;9.02;4.95;;;14.10;93.20;;;;;;6313451;28;20387;-82
2023/05/29 01:38:25;;;;;;;11.10;5.50;;;14.20;93.00;;;;;;6306895;28;20085;-82
2023/05/29 01:41:29;;;;;;;11.60;5.97;;;14.20;93.00;;;;;;6305133;28;20048;-82
2023/05/29 01:44:33;;;;;;;9.52;5.20;;;14.30;92.40;;;;;;6307707;28;20064;-83
2023/05/29 01:47:35;;;;;;;7.60;5.15;;;14.30;92.20;;;;;;6310161;28;20048;-83
2023/05/29 01:50:38;;;;;;;7.38;4.70;;;14.30;92.00;;;;;;6309156;28;20053;-82
2023/05/29 01:53:41;;;;;;;7.28;5.10;;;14.30;92.00;;;;;;6305429;28;20093;-83
2023/05/29 01:56:43;;;;;;;5.70;4.50;;;14.30;91.90;;;;;;6305720;28;20434;-83
2023/05/29 01:59:47;;;;;;;6.63;4.85;;;14.30;91.70;;;;;;6305217;28;20059;-83
2023/05/29 02:02:49;;;;;;;6.10;4.57;;;14.30;91.60;;;;;;6304916;28;20052;-83
2023/05/29 02:05:51;;;;;;;7.22;4.70;;;14.40;91.40;;;;;;6304075;28;20052;-83
2023/05/29 02:08:52;;;;;;;8.82;4.70;;;14.40;91.10;;;;;;6305057;28;20045;-83
2023/05/29 02:11:54;;;;;;;9.38;5.82;;;14.40;91.00;;;;;;6304348;28;20055;-82
2023/05/29 02:14:57;;;;;;;5.85;4.75;;;14.40;90.90;;;;;;6304748;28;20394;-82
2023/05/29 02:18:00;;;;;;;8.57;4.68;;;14.40;91.00;;;;;;6314658;28;20048;-82
2023/05/29 02:21:03;;;;;;;5.95;4.35;;;14.40;90.70;;;;;;6310339;28;20044;-83
2023/05/29 02:24:05;;;;;;;8.60;5.00;;;14.30;90.60;;;;;;6322907;28;20498;-82
2023/05/29 02:27:06;;;;;;;5.30;4.28;;;14.30;90.60;;;;;;6329639;28;20048;-82
2023/05/29 02:30:10;;;;;;;10.43;5.20;;;14.30;90.60;;;;;;6328912;28;20129;-83
2023/05/29 02:33:12;;;;;;;7.28;5.05;;;14.20;90.60;;;;;;6328683;28;20048;-83
2023/05/29 02:36:13;;;;;;;7.78;6.05;;;14.10;90.70;;;;;;6329461;28;20050;-82
2023/05/29 02:39:15;;;;;;;10.85;5.80;;;14.00;90.70;;;;;;6346227;28;20108;-82
2023/05/29 02:42:17;;;;;;;7.22;4.05;;;14.00;90.90;;;;;;6339035;28;20044;-82
2023/05/29 02:45:20;;;;;;;7.30;4.40;;;14.00;90.90;;;;;;6319915;28;20050;-83
2023/05/29 02:48:22;;;;;;;9.77;5.80;;;14.00;91.00;;;;;;6312366;28;20045;-83
2023/05/29 02:51:23;;;;;;;12.48;5.15;;;13.90;91.00;;;;;;6318293;28;20051;-82
2023/05/29 02:54:26;;;;;;;7.85;5.10;;;13.90;91.00;;;;;;6319104;28;20045;-83
2023/05/29 02:57:28;;;;;;;7.20;5.03;;;13.80;91.10;;;;;;6314810;28;20063;-80
2023/05/29 03:00:31;;;;;;;6.07;5.25;;;13.80;91.20;;;;;;6308582;28;20046;-81
2023/05/29 03:03:32;;;;;;;5.75;4.30;;;13.80;91.30;;;;;;6309096;28;20059;-81
2023/05/29 03:06:34;;;;;;;7.72;5.75;;;13.70;91.40;;;;;;6284358;28;20059;-80
2023/05/29 03:09:36;;;;;;;12.45;5.53;;;13.60;91.50;;;;;;6297000;28;20768;-81
2023/05/29 03:12:41;;;;;;;8.95;5.32;;;13.60;91.70;;;;;;6309650;28;20049;-80
2023/05/29 03:15:44;;;;;;;9.02;4.80;;;13.50;91.90;;;;;;6311075;28;20063;-80
2023/05/29 03:18:45;;;;;;;10.93;5.00;;;13.50;92.00;;;;;;6312283;28;20055;-82
2023/05/29 03:21:47;;;;;;;7.13;5.07;;;13.40;92.10;;;;;;6310597;28;20049;-81
2023/05/29 03:24:49;;;;;;;9.50;4.82;;;13.30;92.20;;;;;;6313317;28;20079;-80
2023/05/29 03:27:50;;;;;;;9.18;4.25;;;13.30;92.40;;;;;;6312019;28;20050;-82
2023/05/29 03:30:53;;;;;;;6.22;5.05;;;13.30;92.70;;;;;;6321824;28;20051;-82
2023/05/29 03:33:55;;;;;;;7.50;5.13;;;13.20;92.80;;;;;;6316504;28;20429;-81
2023/05/29 03:36:57;;;;;;;5.75;4.97;;;13.30;92.90;;;;;;6314627;28;20044;-83
2023/05/29 03:39:58;;;;;;;6.97;4.57;;;13.30;93.00;;;;;;6315267;28;20047;-83
2023/05/29 03:43:00;;;;;;;7.45;4.75;;;13.20;93.10;;;;;;6315986;28;20051;-83
2023/05/29 03:46:03;;;;;;;8.70;5.72;;;13.20;93.20;;;;;;6315630;28;20049;-83
2023/05/29 03:49:07;;;;;;;8.60;4.97;;;13.30;93.40;;;;;;6316169;28;20044;-83
2023/05/29 03:52:08;;;;;;;8.07;5.35;;;13.10;93.50;;;;;;6317179;28;20044;-81
2023/05/29 03:55:12;;;;;;;8.27;5.60;;;13.10;93.80;;;;;;6319201;28;20052;-82
2023/05/29 03:58:15;;;;;;;10.30;7.53;;;13.00;94.30;;;;;;6318015;28;20112;-82
2023/05/29 04:01:18;;;;;;;12.48;5.28;;;13.00;94.30;;;;;;6316322;28;20071;-82
2023/05/29 04:04:20;;;;;;;6.45;5.30;;;13.00;94.20;;;;;;6316834;28;20057;-83
2023/05/29 04:07:22;;;;;;;7.63;5.60;;;13.00;94.40;;;;;;6320661;28;20048;-81
2023/05/29 04:10:24;;;;;;;10.88;6.70;;;13.00;94.50;;;;;;6317097;28;20092;-82
2023/05/29 04:13:26;;;;;;;9.98;5.28;;;13.10;94.60;;;;;;6316007;28;20044;-82
2023/05/29 04:16:29;;;;;;;6.35;5.05;;;13.10;94.70;;;;;;6317402;28;20049;-82
2023/05/29 04:19:31;;;;;;;8.00;5.82;;;13.10;95.00;;;;;;6316888;28;20044;-82
2023/05/29 04:22:33;;;;;;;6.13;5.40;;;13.30;95.60;;;;;;6316107;28;20108;-81
2023/05/29 04:25:36;;;;;;;9.40;5.22;;;13.70;96.00;;;;;;6315822;28;20054;-81
2023/05/29 04:28:38;;;;;;;7.22;5.00;;;14.10;95.60;;;;;;6316288;28;20098;-81
2023/05/29 04:31:41;;;;;;;10.93;5.70;;;14.70;95.10;;;;;;6316996;28;20049;-81
2023/05/29 04:34:43;;;;;;;7.07;5.20;;;14.90;94.50;;;;;;6317025;28;20052;-83
2023/05/29 04:37:45;;;;;;;7.82;4.75;;;15.20;94.20;;;;;;6317470;28;20044;-82
2023/05/29 04:40:47;;;;;;;7.82;4.55;;;15.50;94.40;;;;;;6320564;28;20044;-82
2023/05/29 04:43:50;;;;;;;5.40;4.28;;;16.20;93.90;;;;;;6312826;28;20053;-82
2023/05/29 04:46:54;;;;;;;10.18;6.43;;;16.90;93.00;;;;;;6315135;28;20075;-82
2023/05/29 04:49:55;;;;;;;8.45;4.82;;;17.70;91.50;;;;;;6312810;28;20060;-81
2023/05/29 04:52:57;;;;;;;9.32;4.18;;;18.40;90.40;;;;;;6314475;28;20056;-83
2023/05/29 04:55:59;;;;;;;10.55;4.85;;;19.10;87.80;;;;;;6313325;28;20045;-82
2023/05/29 04:59:01;;;;;;;4.75;4.22;;;19.80;84.50;;;;;;6313839;28;20053;-82
2023/05/29 05:02:05;;;;;;;8.15;5.20;;;20.40;81.80;;;;;;6311031;28;20044;-81
2023/05/29 05:05:08;;;;;;;9.85;4.63;;;21.00;78.90;;;;;;6309641;28;20132;-82
2023/05/29 05:08:11;;;;;;;9.20;4.07;;;21.40;76.60;;;;;;6311577;28;20048;-82
2023/05/29 05:11:13;;;;;;;8.07;4.68;;;21.80;74.20;;;;;;6313384;28;20052;-81
2023/05/29 05:14:15;;;;;;;5.55;4.25;;;22.10;72.50;;;;;;6310193;28;20044;-82
2023/05/29 05:17:18;;;;;;;8.50;4.60;;;22.40;70.50;;;;;;6309373;28;20048;-81
2023/05/29 05:20:20;;;;;;;5.70;4.30;;;22.50;69.00;;;;;;6310680;28;20048;-82
2023/05/29 05:23:22;;;;;;;8.18;4.28;;;22.80;68.10;;;;;;6311079;28;20414;-82
2023/05/29 05:26:24;;;;;;;7.53;4.32;;;23.00;66.80;;;;;;6310145;28;20045;-82
2023/05/29 05:29:25;;;;;;;5.55;3.58;;;23.20;66.00;;;;;;6309607;28;20043;-82
2023/05/29 05:32:28;;;;;;;6.28;4.47;;;23.70;64.80;;;;;;6311476;28;20122;-81
2023/05/29 05:35:30;;;;;;;6.47;4.05;;;23.80;63.30;;;;;;6316928;28;20056;-81
2023/05/29 05:38:32;;;;;;;7.32;4.55;;;23.90;62.80;;;;;;6317795;28;20051;-81
2023/05/29 05:41:33;;;;;;;4.75;3.88;;;24.30;62.10;;;;;;6314699;28;20045;-81
2023/05/29 05:44:35;;;;;;;7.97;4.00;;;24.90;60.80;;;;;;6309636;28;20044;-82
2023/05/29 05:47:38;;;;;;;10.02;4.60;;;25.20;59.70;;;;;;6309252;28;20483;-82
2023/05/29 05:50:40;;;;;;;8.55;4.82;;;25.50;58.30;;;;;;6317197;28;20048;-80
2023/05/29 05:53:42;;;;;;;4.72;3.92;;;25.70;57.30;;;;;;6306544;28;20102;-82
2023/05/29 05:56:44;;;;;;;7.28;4.80;;;25.60;56.30;;;;;;6303879;28;20048;-82
2023/05/29 05:59:45;;;;;;;6.18;4.10;;;25.50;56.30;;;;;;6301437;28;20044;-83
2023/05/29 06:02:50;;;;;;;6.18;4.55;;;25.70;56.10;;;;;;6305299;28;20060;-82
2023/05/29 06:05:54;;;;;;;10.82;3.95;;;25.90;55.80;;;;;;6306853;28;20059;-82
2023/05/29 06:08:56;;;;;;;6.32;3.85;;;26.30;55.40;;;;;;6310637;28;20051;-82
2023/05/29 06:11:58;;;;;;;6.00;4.28;;;26.90;54.40;;;;;;6314175;28;20048;-81
2023/05/29 06:15:00;;;;;;;5.50;3.67;;;27.30;53.70;;;;;;6313566;28;20078;-82
2023/05/29 06:18:06;;;;;;;7.18;4.55;;;27.80;52.80;;;;;;6311518;28;20245;-82
2023/05/29 06:21:10;;;;;;;7.43;4.18;;;28.00;51.70;;;;;;6309716;28;20040;-82
2023/05/29 06:24:12;;;;;;;6.75;4.47;;;28.00;50.70;;;;;;6324979;28;20048;-82
2023/05/29 06:27:13;;;;;;;6.05;3.60;;;27.60;50.40;;;;;;6330995;28;20050;-82
2023/05/29 06:30:16;;;;;;;5.68;3.67;;;27.30;50.00;;;;;;6330570;28;20044;-82
2023/05/29 06:33:20;;;;;;;5.68;3.55;;;27.00;50.00;;;;;;6330072;28;20433;-82
2023/05/29 06:36:22;;;;;;;7.10;4.13;;;26.90;50.60;;;;;;6329708;28;20044;-82
2023/05/29 06:39:23;;;;;;;5.38;3.88;;;27.10;49.40;;;;;;6327872;28;20055;-81
2023/05/29 06:42:25;;;;;;;5.70;3.85;;;26.90;49.10;;;;;;6327576;28;20044;-82
2023/05/29 06:45:27;;;;;;;6.55;3.83;;;26.90;49.00;;;;;;6328611;28;20567;-82
2023/05/29 06:48:33;;;;;;;6.55;4.05;;;27.20;48.70;;;;;;6327577;28;20438;-83
2023/05/29 06:51:35;;;;;;;4.97;3.60;;;27.60;48.50;;;;;;6326940;28;20051;-82
2023/05/29 06:54:36;;;;;;;6.00;3.83;;;28.20;48.00;;;;;;6328202;28;20052;-83
2023/05/29 06:57:38;;;;;;;7.57;4.15;;;28.60;47.20;;;;;;6326570;28;20043;-83
2023/05/29 07:00:40;;;;;;;6.95;4.53;;;28.40;46.10;;;;;;6332587;28;20043;-83
2023/05/29 07:03:43;;;;;;;4.03;3.45;;;28.00;46.00;;;;;;6349296;28;20048;-83
2023/05/29 07:06:45;;;;;;;4.88;3.60;;;27.70;45.80;;;;;;6346845;28;20054;-83
2023/05/29 07:09:47;;;;;;;5.22;3.55;;;27.50;46.00;;;;;;6335067;28;20529;-82
2023/05/29 07:12:48;;;;;;;6.18;3.90;;;27.40;46.20;;;;;;6327600;28;20040;-82
2023/05/29 07:15:51;;;;;;;6.53;3.22;;;27.10;46.90;;;;;;6327370;28;20059;-82
2023/05/29 07:18:54;;;;;;;7.93;3.95;;;27.00;47.10;;;;;;6327948;28;20647;-83
2023/05/29 07:21:55;;;;;;;6.55;3.08;;;27.30;47.40;;;;;;6324466;28;20051;-83
2023/05/29 07:24:57;;;;;;;9.85;4.57;;;27.50;47.90;;;;;;6278683;28;20136;-82
2023/05/29 07:27:59;;;;;;;5.40;3.97;;;27.80;47.10;;;;;;6277190;28;20045;-82
2023/05/29 07:31:01;;;;;;;5.75;3.80;;;28.00;46.80;;;;;;6277037;28;20049;-82
2023/05/29 07:34:04;;;;;;;3.40;2.90;;;27.90;46.50;;;;;;6276562;28;20041;-82
2023/05/29 07:37:07;;;;;;;5.25;3.97;;;28.20;47.00;;;;;;6275554;28;20049;-82
2023/05/29 07:40:10;;;;;;;4.78;3.53;;;28.60;46.00;;;;;;6276086;28;20114;-83
2023/05/29 07:43:11;;;;;;;5.30;3.72;;;28.80;46.00;;;;;;6276249;28;20052;-82
2023/05/29 07:46:13;;;;;;;7.80;3.08;;;29.30;45.40;;;;;;6276403;28;20049;-82
2023/05/29 07:49:16;;;;;;;12.38;2.97;;;29.10;44.70;;;;;;6275112;28;20049;-82
2023/05/29 07:52:18;;;;;;;4.95;3.50;;;28.80;44.70;;;;;;6275471;28;20056;-82
2023/05/29 07:55:20;;;;;;;10.40;4.50;;;29.00;44.90;;;;;;6298117;28;20055;-83
2023/05/29 07:58:21;;;;;;;4.97;2.72;;;28.90;44.30;;;;;;6300383;28;20067;-82
2023/05/29 08:01:23;;;;;;;5.10;3.42;;;28.70;44.60;;;;;;6258634;28;20049;-82
2023/05/29 08:04:26;;;;;;;5.20;3.90;;;28.70;44.70;;;;;;6308160;28;20059;-82
2023/05/29 08:07:28;;;;;;;5.65;3.30;;;28.70;44.70;;;;;;6315652;28;20051;-82
2023/05/29 08:10:30;;;;;;;6.55;3.22;;;27.90;44.50;;;;;;6322079;28;20231;-81
2023/05/29 08:13:32;;;;;;;4.38;3.47;;;26.90;45.90;;;;;;6326899;28;20052;-81
2023/05/29 08:16:33;;;;;;;7.68;4.07;;;25.90;47.40;;;;;;6320526;28;20040;-81
2023/05/29 08:19:36;;;;;;;6.97;3.15;;;25.30;48.50;;;;;;6313224;28;20062;-83
2023/05/29 08:22:38;;;;;;;7.80;5.00;;;24.70;49.90;;;;;;6313012;28;20444;-81
2023/05/29 08:25:40;;;;;;;6.28;3.30;;;24.50;50.60;;;;;;6312786;28;20055;-81
2023/05/29 08:28:42;;;;;;;6.28;3.50;;;24.60;50.80;;;;;;6315749;28;20052;-80
2023/05/29 08:31:43;;;;;;;9.38;4.03;;;24.80;51.00;;;;;;6315054;28;20049;-81
2023/05/29 08:34:46;;;;;;;7.43;3.88;;;24.90;50.90;;;;;;6308001;28;20051;-81
2023/05/29 08:37:48;;;;;;;3.92;3.17;;;24.80;50.90;;;;;;6311059;28;20048;-82
2023/05/29 08:40:50;;;;;;;5.88;3.92;;;24.70;51.00;;;;;;6300508;28;20060;-80
2023/05/29 08:43:53;;;;;;;6.00;3.20;;;24.40;51.60;;;;;;6306756;28;20063;-81
2023/05/29 08:46:56;;;;;;;5.35;4.20;;;24.20;52.00;;;;;;6306656;28;20056;-83
2023/05/29 08:50:01;;;;;;;7.78;4.28;;;24.30;52.50;;;;;;6298769;28;20106;-81
2023/05/29 08:53:04;;;;;;;7.18;3.88;;;24.20;52.40;;;;;;6304966;28;20090;-82
2023/05/29 08:56:06;;;;;;;10.18;4.25;;;24.30;53.50;;;;;;6303371;28;20048;-80
2023/05/29 08:59:09;;;;;;;6.75;4.35;;;24.20;53.30;;;;;;6300968;28;20055;-81
2023/05/29 09:02:11;;;;;;;7.03;3.63;;;24.30;53.70;;;;;;6301743;28;20045;-80
2023/05/29 09:05:14;;;;;;;6.25;3.83;;;24.60;53.20;;;;;;6301005;28;20063;-81
2023/05/29 09:08:16;;;;;;;10.30;4.03;;;25.00;52.60;;;;;;6298746;28;20057;-82
2023/05/29 09:11:18;;;;;;;5.95;4.55;;;25.00;52.20;;;;;;6302696;28;20048;-80
2023/05/29 09:14:36;;;;;;;7.35;3.83;;;24.90;52.30;;;;;;6297501;28;20053;-80
2023/05/29 09:17:39;;;;;;;3.05;2.60;;;24.80;52.70;;;;;;6304500;28;20053;-80
2023/05/29 09:20:42;;;;;;;4.93;3.90;;;24.90;52.80;;;;;;6302600;28;20044;-81
2023/05/29 09:23:44;;;;;;;5.00;3.75;;;25.10;52.90;;;;;;6292199;28;20055;-81
2023/05/29 09:26:50;;;;;;;10.05;3.40;;;25.30;52.90;;;;;;6305642;28;20133;-80
2023/05/29 09:29:51;;;;;;;5.93;3.80;;;25.60;52.30;;;;;;6306276;28;20063;-82
2023/05/29 09:32:54;;;;;;;4.85;3.75;;;25.70;51.80;;;;;;6301711;28;20059;-81
2023/05/29 09:36:00;;;;;;;8.95;5.03;;;26.00;51.80;;;;;;6301470;28;20047;-80
2023/05/29 09:39:04;;;;;;;9.10;5.43;;;26.20;50.90;;;;;;6302346;28;20056;-81
2023/05/29 09:42:06;;;;;;;5.85;3.67;;;26.10;50.50;;;;;;6298510;28;20048;-80
2023/05/29 09:45:09;;;;;;;5.95;3.72;;;26.00;50.30;;;;;;6289860;28;20049;-81
2023/05/29 09:48:14;;;;;;;6.28;4.03;;;25.90;50.60;;;;;;6286692;28;20068;-81
2023/05/29 09:51:23;;;;;;;5.65;4.45;;;25.80;50.60;;;;;;6282522;28;20043;-81
2023/05/29 09:54:29;;;;;;;8.90;4.22;;;25.90;51.30;;;;;;6281229;28;20053;-79
2023/05/29 09:57:31;;;;;;;7.30;3.85;;;25.90;51.10;;;;;;6282210;28;20044;-82
2023/05/29 10:00:33;;;;;;;9.90;3.92;;;26.20;51.30;;;;;;6283941;28;20049;-82
2023/05/29 10:03:35;;;;;;;6.07;4.80;;;26.60;50.90;;;;;;6281071;28;20637;-80
2023/05/29 10:06:42;;;;;;;6.25;4.20;;;26.80;50.20;;;;;;6283901;28;20044;-82
2023/05/29 10:09:50;;;;;;;5.75;3.40;;;26.70;50.30;;;;;;6280172;28;20467;-81
2023/05/29 10:12:52;;;;;;;7.38;4.30;;;26.90;49.90;;;;;;6288836;28;20063;-81
2023/05/29 10:16:01;;;;;;;3.95;3.30;;;26.80;49.10;;;;;;6279705;28;20483;-81
2023/05/29 10:19:07;;;;;;;7.78;4.57;;;26.40;49.50;;;;;;6295965;28;20052;-80
2023/05/29 10:22:11;;;;;;;7.50;3.90;;;26.50;50.10;;;;;;6296462;28;20052;-82
2023/05/29 10:25:15;;;;;;;6.68;4.10;;;26.90;50.20;;;;;;6291443;28;20054;-80
2023/05/29 10:28:17;;;;;;;7.35;3.83;;;27.20;49.70;;;;;;6291878;28;20052;-82
2023/05/29 10:31:25;;;;;;;5.95;3.42;;;27.30;49.20;;;;;;6295937;28;20041;-78
2023/05/29 10:34:38;;;;;;;8.20;4.25;;;27.30;48.70;;;;;;6296243;28;20048;-80
2023/05/29 10:37:48;;;;;;;7.13;4.65;;;27.30;48.50;;;;;;6291730;28;20044;-81
2023/05/29 10:40:50;;;;;;;5.50;3.80;;;27.40;48.90;;;;;;6299670;28;20048;-80
2023/05/29 10:43:54;;;;;;;5.63;4.25;;;27.70;48.30;;;;;;6308036;28;20053;-81
2023/05/29 10:47:03;;;;;;;8.05;3.53;;;27.90;47.80;;;;;;6298563;28;20060;-79
2023/05/29 10:53:27;;;;;;;5.20;4.00;;;27.90;46.90;;;;;;6289591;28;20656;-79
2023/05/29 10:56:31;;;;;;;7.28;4.68;;;28.20;46.60;;;;;;6297047;28;20051;-81
2023/05/29 10:59:37;;;;;;;7.60;3.65;;;28.00;46.20;;;;;;6295023;28;20056;-79
2023/05/29 11:02:40;;;;;;;7.68;4.03;;;28.10;46.80;;;;;;6291262;28;20069;-81
2023/05/29 11:05:57;;;;;;;7.35;3.97;;;28.40;46.60;;;;;;6292098;28;20055;-82
2023/05/29 11:09:02;;;;;;;7.25;4.07;;;29.10;46.00;;;;;;6295484;28;20063;-81
2023/05/29 11:12:12;;;;;;;8.90;3.72;;;29.20;45.80;;;;;;6288783;28;20048;-78
2023/05/29 11:15:18;;;;;;;6.50;4.40;;;29.30;45.40;;;;;;6272750;28;20072;-80
2023/05/29 11:18:21;;;;;;;5.70;3.53;;;29.40;45.70;;;;;;6265457;28;20514;-81
2023/05/29 11:21:30;;;;;;;5.93;3.95;;;29.60;45.40;;;;;;6269411;28;20052;-81
2023/05/29 11:24:36;;;;;;;7.47;3.90;;;29.40;44.30;;;;;;6278815;28;20052;-80
2023/05/29 11:27:38;;;;;;;14.40;3.92;;;29.40;44.10;;;;;;6281683;28;20072;-83
2023/05/29 11:30:45;;;;;;;13.25;3.45;;;29.20;44.10;;;;;;6271593;28;20080;-80
2023/05/29 11:33:51;;;;;;;4.00;3.55;;;29.10;44.20;;;;;;6274423;28;20535;-81
2023/05/29 11:36:53;;;;;;;5.57;3.63;;;29.30;43.70;;;;;;6282216;28;20060;-80
2023/05/29 11:39:56;;;;;;;6.63;3.83;;;29.30;43.60;;;;;;6295930;28;20063;-82
2023/05/29 11:42:58;;;;;;;4.72;3.50;;;29.40;43.20;;;;;;6296811;28;20509;-80
2023/05/29 11:45:59;;;;;;;10.88;3.90;;;29.60;42.90;;;;;;6298694;28;20063;-81
2023/05/29 11:49:01;;;;;;;7.10;3.53;;;29.80;42.30;;;;;;6293647;28;20777;-79
2023/05/29 11:52:08;;;;;;;11.13;2.90;;;29.80;42.20;;;;;;6289384;28;20044;-81
2023/05/29 11:55:11;;;;;;;4.38;3.30;;;29.80;42.70;;;;;;6294057;28;20105;-79
2023/05/29 11:58:13;;;;;;;10.65;4.30;;;29.90;42.10;;;;;;6269461;28;20060;-81
2023/05/29 12:01:18;;;;;;;7.00;3.25;;;30.00;41.40;;;;;;6293322;28;20052;-80
2023/05/29 12:04:20;;;;;;;6.70;3.13;;;30.00;41.90;;;;;;6305022;28;20048;-80
2023/05/29 12:07:22;;;;;;;6.38;3.58;;;30.00;41.90;;;;;;6298544;28;20052;-79
2023/05/29 12:10:25;;;;;;;4.13;3.22;;;29.90;41.00;;;;;;6297082;28;20053;-82
2023/05/29 12:13:28;;;;;;;6.40;3.15;;;29.80;40.80;;;;;;6297774;28;20048;-82
2023/05/29 12:16:33;;;;;;;3.80;3.28;;;29.80;41.40;;;;;;6302100;28;20052;-81
2023/05/29 12:19:35;;;;;;;9.45;3.58;;;29.90;41.10;;;;;;6307345;28;20051;-81
2023/05/29 12:22:38;;;;;;;12.20;3.47;;;29.80;40.30;;;;;;6296185;28;20057;-82
2023/05/29 12:25:43;;;;;;;5.55;3.10;;;29.70;40.80;;;;;;6287132;28;20049;-82
2023/05/29 12:28:45;;;;;;;5.18;3.70;;;29.60;40.50;;;;;;6283375;28;20048;-80
2023/05/29 12:31:47;;;;;;;6.55;3.45;;;29.70;40.20;;;;;;6288306;28;20434;-83
2023/05/29 12:34:50;;;;;;;6.55;3.35;;;29.90;40.40;;;;;;6287231;28;20706;-80
2023/05/29 12:37:55;;;;;;;4.22;3.45;;;29.90;40.70;;;;;;6282109;28;20045;-80
2023/05/29 12:40:58;;;;;;;5.80;4.05;;;30.00;40.60;;;;;;6285168;28;20052;-80
2023/05/29 12:44:02;;;;;;;4.45;4.05;;;29.80;39.80;;;;;;6289572;28;20095;-81
2023/05/29 12:47:05;;;;;;;6.55;3.35;;;29.40;40.40;;;;;;6296509;28;20058;-82
2023/05/29 12:50:24;;;;;;;4.28;3.53;;;29.60;40.40;;;;;;6290099;28;23235;-82
2023/05/29 12:53:30;;;;;;;3.65;2.97;;;29.70;40.50;;;;;;6288201;28;22726;-83
2023/05/29 12:56:33;;;;;;;5.93;3.05;;;29.90;41.10;;;;;;6296663;28;20572;-82
2023/05/29 12:59:35;;;;;;;6.35;4.28;;;30.30;40.90;;;;;;6292656;28;20060;-80
2023/05/29 13:02:36;;;;;;;5.30;3.33;;;30.50;40.40;;;;;;6294824;28;20041;-80
2023/05/29 13:05:38;;;;;;;6.60;3.45;;;30.90;39.80;;;;;;6292978;28;20045;-82
2023/05/29 13:08:40;;;;;;;5.68;3.28;;;31.10;38.90;;;;;;6295281;28;20037;-81
2023/05/29 13:11:43;;;;;;;6.25;2.88;;;30.90;38.80;;;;;;6289153;28;20044;-80
2023/05/29 13:14:45;;;;;;;5.72;2.97;;;30.50;38.40;;;;;;6294735;28;20067;-80
2023/05/29 13:17:47;;;;;;;5.22;4.25;;;30.30;37.80;;;;;;6294389;28;20126;-81
2023/05/29 13:20:48;;;;;;;8.00;3.08;;;30.20;37.80;;;;;;6291694;28;20045;-81
2023/05/29 13:23:50;;;;;;;5.72;3.17;;;30.30;37.90;;;;;;6293694;28;20041;-80
2023/05/29 13:26:53;;;;;;;5.22;3.50;;;30.10;37.00;;;;;;6294353;28;20401;-80
2023/05/29 13:29:55;;;;;;;3.88;3.13;;;29.80;37.60;;;;;;6295382;28;20088;-81
2023/05/29 13:32:57;;;;;;;3.65;2.97;;;29.70;38.00;;;;;;6294813;28;20036;-83
2023/05/29 13:35:59;;;;;;;11.02;3.17;;;29.60;38.10;;;;;;6294393;28;20051;-83
2023/05/29 13:39:01;;;;;;;4.70;3.30;;;29.40;38.20;;;;;;6295653;28;20070;-80
2023/05/29 13:42:05;;;;;;;12.32;3.15;;;29.50;38.40;;;;;;6291503;28;21731;-83
2023/05/29 13:45:08;;;;;;;7.18;2.78;;;29.40;38.30;;;;;;6293527;28;20052;-81
2023/05/29 13:48:10;;;;;;;5.05;3.10;;;29.40;38.50;;;;;;6297145;28;20142;-84
2023/05/29 13:51:12;;;;;;;7.80;2.60;;;29.60;38.30;;;;;;6298515;28;20055;-81
2023/05/29 13:54:13;;;;;;;5.47;2.85;;;29.80;37.70;;;;;;6296465;28;20538;-81
2023/05/29 13:57:16;;;;;;;7.68;2.50;;;29.70;37.70;;;;;;6289085;28;20053;-82
2023/05/29 14:00:19;;;;;;;6.22;3.45;;;29.90;37.70;;;;;;6296928;28;20053;-83
2023/05/29 14:03:23;;;;;;;7.10;3.20;;;29.80;37.80;;;;;;6291273;28;20064;-82
2023/05/29 14:06:25;;;;;;;4.90;3.33;;;30.00;38.10;;;;;;6295285;28;20048;-80
2023/05/29 14:09:30;;;;;;;3.47;3.03;;;30.30;38.30;;;;;;6292751;28;20414;-81
2023/05/29 14:12:33;;;;;;;4.88;2.88;;;30.20;38.00;;;;;;6289748;28;20101;-81
2023/05/29 14:15:34;;;;;;;3.25;2.35;;;30.20;37.80;;;;;;6291450;28;20057;-80
2023/05/29 14:18:36;;;;;;;5.38;2.55;;;30.30;37.80;;;;;;6292102;28;20048;-80
2023/05/29 14:21:38;;;;;;;4.93;2.60;;;30.30;38.00;;;;;;6296049;28;20050;-81
2023/05/29 14:24:39;;;;;;;5.03;3.03;;;30.50;37.80;;;;;;6293243;28;20056;-82
2023/05/29 14:27:42;;;;;;;4.15;2.45;;;30.70;37.60;;;;;;6285537;28;20056;-80
2023/05/29 14:30:44;;;;;;;5.57;2.88;;;30.60;37.50;;;;;;6288849;28;20048;-81
2023/05/29 14:33:46;;;;;;;3.05;2.22;;;30.30;37.30;;;;;;6291267;28;20047;-80
2023/05/29 14:36:47;;;;;;;7.28;2.55;;;30.10;37.70;;;;;;6291126;28;22644;-80
2023/05/29 14:39:49;;;;;;;2.53;2.30;;;30.10;37.90;;;;;;6298262;28;20059;-80
2023/05/29 14:42:52;;;;;;;4.85;2.50;;;30.00;37.90;;;;;;6296234;28;20044;-81
2023/05/29 14:45:54;;;;;;;3.13;2.58;;;29.70;37.70;;;;;;6294936;28;20049;-81
2023/05/29 14:48:56;;;;;;;6.00;2.47;;;29.60;37.70;;;;;;6298157;28;20041;-81
2023/05/29 14:51:58;;;;;;;7.38;3.05;;;29.70;37.50;;;;;;6298852;28;20043;-82
2023/05/29 14:55:02;;;;;;;4.38;2.65;;;29.60;37.60;;;;;;6297422;28;20055;-80
2023/05/29 14:58:05;;;;;;;4.30;3.30;;;29.50;37.80;;;;;;6295935;28;20052;-80
2023/05/29 15:01:07;;;;;;;5.05;2.35;;;29.60;37.60;;;;;;6290827;28;20044;-81
2023/05/29 15:04:09;;;;;;;6.88;2.97;;;29.30;37.70;;;;;;6288810;28;20045;-83
2023/05/29 15:07:10;;;;;;;5.32;2.47;;;29.30;38.10;;;;;;6283309;28;20396;-80
2023/05/29 15:10:12;;;;;;;5.32;2.33;;;29.60;38.40;;;;;;6284261;28;20067;-80
2023/05/29 15:13:15;;;;;;;8.25;3.55;;;29.70;38.00;;;;;;6283133;28;20044;-81
2023/05/29 15:16:17;;;;;;;4.15;2.60;;;29.70;38.00;;;;;;6283907;28;20059;-82
2023/05/29 15:19:18;;;;;;;3.17;2.50;;;29.60;38.30;;;;;;6284270;28;20048;-80
2023/05/29 15:22:20;;;;;;;4.45;3.05;;;29.70;38.70;;;;;;6281350;28;20048;-80
2023/05/29 15:25:22;;;;;;;5.88;2.10;;;29.90;38.30;;;;;;6280565;28;20041;-80
2023/05/29 15:28:25;;;;;;;3.70;2.60;;;30.00;38.00;;;;;;6286698;28;20036;-81
2023/05/29 15:31:27;;;;;;;2.83;2.40;;;30.00;37.90;;;;;;6322345;28;20025;-80
2023/05/29 15:34:28;;;;;;;3.50;2.30;;;30.00;37.60;;;;;;6293825;28;20052;-80
2023/05/29 15:37:30;;;;;;;3.45;3.15;;;29.90;37.80;;;;;;6293709;28;20044;-79
2023/05/29 15:40:32;;;;;;;3.55;2.40;;;29.80;37.70;;;;;;6291750;28;20052;-79
2023/05/29 15:43:35;;;;;;;4.47;2.78;;;29.70;37.80;;;;;;6298477;28;20055;-80
2023/05/29 15:46:37;;;;;;;2.88;2.53;;;29.40;37.70;;;;;;6296013;28;20063;-79
2023/05/29 15:49:38;;;;;;;8.07;4.03;;;29.30;37.70;;;;;;6289386;28;20056;-80
2023/05/29 15:52:40;;;;;;;3.42;2.25;;;29.20;37.60;;;;;;6295169;28;20411;-80
2023/05/29 15:55:42;;;;;;;3.00;2.40;;;29.10;37.80;;;;;;6292148;28;20044;-79